sensor_id;sensor_type;location;lat;lon;timestamp;pressure;altitude;pressure_sealevel;temperature;humidity
69402;BME280;56589;51.992;5.924;2023-03-26T00:01:10;100130.75;;;7.26;82.82
69402;BME280;56589;51.992;5.924;2023-03-26T00:03:38;100130.75;;;7.26;82.56
69402;BME280;56589;51.992;5.924;2023-03-26T00:06:08;100139.31;;;7.28;82.78
69402;BME280;56589;51.992;5.924;2023-03-26T00:08:36;100138.31;;;7.31;82.56
69402;BME280;56589;51.992;5.924;2023-03-26T00:11:05;100135.59;;;7.32;82.66
69402;BME280;56589;51.992;5.924;2023-03-26T00:13:33;100140.69;;;7.36;82.80
69402;BME280;56589;51.992;5.924;2023-03-26T00:16:02;100140.59;;;7.37;82.98
69402;BME280;56589;51.992;5.924;2023-03-26T00:18:29;100137.03;;;7.38;82.94
69402;BME280;56589;51.992;5.924;2023-03-26T00:20:55;100136.00;;;7.41;82.63
69402;BME280;56589;51.992;5.924;2023-03-26T00:23:21;100132.38;;;7.43;82.67
69402;BME280;56589;51.992;5.924;2023-03-26T00:25:47;100127.78;;;7.47;82.98
69402;BME280;56589;51.992;5.924;2023-03-26T00:28:13;100125.94;;;7.49;82.91
69402;BME280;56589;51.992;5.924;2023-03-26T00:30:39;100125.84;;;7.50;82.78
69402;BME280;56589;51.992;5.924;2023-03-26T00:33:07;100124.91;;;7.51;82.89
69402;BME280;56589;51.992;5.924;2023-03-26T00:35:34;100120.63;;;7.50;82.98
69402;BME280;56589;51.992;5.924;2023-03-26T00:38:00;100120.50;;;7.52;82.97
69402;BME280;56589;51.992;5.924;2023-03-26T00:40:26;100118.44;;;7.57;83.10
69402;BME280;56589;51.992;5.924;2023-03-26T00:42:52;100110.50;;;7.58;82.93
69402;BME280;56589;51.992;5.924;2023-03-26T00:45:18;100111.28;;;7.60;82.89
69402;BME280;56589;51.992;5.924;2023-03-26T00:47:43;100106.78;;;7.63;82.82
69402;BME280;56589;51.992;5.924;2023-03-26T00:50:12;100105.13;;;7.61;83.03
69402;BME280;56589;51.992;5.924;2023-03-26T00:52:38;100102.50;;;7.61;82.89
69402;BME280;56589;51.992;5.924;2023-03-26T00:55:04;100104.19;;;7.63;82.64
69402;BME280;56589;51.992;5.924;2023-03-26T00:57:31;100098.00;;;7.64;82.61
69402;BME280;56589;51.992;5.924;2023-03-26T00:59:57;100082.34;;;7.64;82.70
69402;BME280;56589;51.992;5.924;2023-03-26T01:02:22;100090.06;;;7.65;82.94
69402;BME280;56589;51.992;5.924;2023-03-26T01:04:54;100082.34;;;7.64;83.00
69402;BME280;56589;51.992;5.924;2023-03-26T01:07:25;100090.38;;;7.60;82.89
69402;BME280;56589;51.992;5.924;2023-03-26T01:09:51;100092.22;;;7.58;82.74
69402;BME280;56589;51.992;5.924;2023-03-26T01:12:22;100086.16;;;7.58;82.79
69402;BME280;56589;51.992;5.924;2023-03-26T01:14:52;100086.16;;;7.58;83.20
69402;BME280;56589;51.992;5.924;2023-03-26T01:17:21;100072.28;;;7.57;83.04
69402;BME280;56589;51.992;5.924;2023-03-26T01:19:53;100076.47;;;7.60;83.04
69402;BME280;56589;51.992;5.924;2023-03-26T01:22:28;100072.09;;;7.60;83.51
69402;BME280;56589;51.992;5.924;2023-03-26T01:24:56;100073.75;;;7.61;83.17
69402;BME280;56589;51.992;5.924;2023-03-26T01:27:28;100066.66;;;7.64;83.43
69402;BME280;56589;51.992;5.924;2023-03-26T01:30:06;100069.00;;;7.68;83.65
69402;BME280;56589;51.992;5.924;2023-03-26T01:32:50;100061.88;;;7.70;83.59
69402;BME280;56589;51.992;5.924;2023-03-26T01:35:30;100054.88;;;7.71;83.20
69402;BME280;56589;51.992;5.924;2023-03-26T01:38:14;100050.50;;;7.71;83.67
69402;BME280;56589;51.992;5.924;2023-03-26T01:40:58;100046.84;;;7.74;83.38
69402;BME280;56589;51.992;5.924;2023-03-26T01:43:32;100049.38;;;7.75;83.78
69402;BME280;56589;51.992;5.924;2023-03-26T01:46:06;100044.97;;;7.76;83.24
69402;BME280;56589;51.992;5.924;2023-03-26T01:48:37;100034.41;;;7.77;83.27
69402;BME280;56589;51.992;5.924;2023-03-26T01:51:05;100030.06;;;7.78;83.37
69402;BME280;56589;51.992;5.924;2023-03-26T01:53:35;100033.56;;;7.77;83.30
69402;BME280;56589;51.992;5.924;2023-03-26T01:56:10;100028.34;;;7.77;83.72
69402;BME280;56589;51.992;5.924;2023-03-26T01:58:53;100028.16;;;7.80;83.89
69402;BME280;56589;51.992;5.924;2023-03-26T02:01:39;100031.41;;;7.83;83.71
69402;BME280;56589;51.992;5.924;2023-03-26T02:04:15;100023.50;;;7.85;83.65
69402;BME280;56589;51.992;5.924;2023-03-26T02:06:50;100021.50;;;7.88;83.32
69402;BME280;56589;51.992;5.924;2023-03-26T02:09:24;100017.94;;;7.89;83.27
69402;BME280;56589;51.992;5.924;2023-03-26T02:12:03;100010.03;;;7.91;83.35
69402;BME280;56589;51.992;5.924;2023-03-26T02:14:31;100003.97;;;7.91;83.50
69402;BME280;56589;51.992;5.924;2023-03-26T02:16:58;99997.78;;;7.92;83.35
69402;BME280;56589;51.992;5.924;2023-03-26T02:19:24;99998.63;;;7.92;83.21
69402;BME280;56589;51.992;5.924;2023-03-26T02:21:49;100001.25;;;7.92;83.57
69402;BME280;56589;51.992;5.924;2023-03-26T02:24:16;100000.28;;;7.93;83.34
69402;BME280;56589;51.992;5.924;2023-03-26T02:26:42;99994.22;;;7.93;83.18
69402;BME280;56589;51.992;5.924;2023-03-26T02:29:10;99991.63;;;7.93;83.09
69402;BME280;56589;51.992;5.924;2023-03-26T02:31:36;99986.28;;;7.94;83.31
69402;BME280;56589;51.992;5.924;2023-03-26T02:34:02;99984.50;;;7.95;83.43
69402;BME280;56589;51.992;5.924;2023-03-26T02:36:28;99982.84;;;7.94;83.08
69402;BME280;56589;51.992;5.924;2023-03-26T02:38:55;99984.50;;;7.95;83.26
69402;BME280;56589;51.992;5.924;2023-03-26T02:41:21;99978.44;;;7.94;83.04
69402;BME280;56589;51.992;5.924;2023-03-26T02:43:47;99975.81;;;7.94;83.00
69402;BME280;56589;51.992;5.924;2023-03-26T02:46:15;99975.72;;;7.96;83.10
69402;BME280;56589;51.992;5.924;2023-03-26T02:48:41;99968.75;;;7.96;83.13
69402;BME280;56589;51.992;5.924;2023-03-26T02:51:07;99970.50;;;7.96;82.96
69402;BME280;56589;51.992;5.924;2023-03-26T02:53:33;99975.63;;;7.97;83.11
69402;BME280;56589;51.992;5.924;2023-03-26T02:55:59;99967.97;;;7.94;83.08
69402;BME280;56589;51.992;5.924;2023-03-26T02:58:25;99966.13;;;7.96;83.21
69402;BME280;56589;51.992;5.924;2023-03-26T03:00:52;99969.34;;;8.00;83.42
69402;BME280;56589;51.992;5.924;2023-03-26T03:03:23;99968.41;;;8.01;83.30
69402;BME280;56589;51.992;5.924;2023-03-26T03:05:51;99965.06;;;7.99;82.88
69402;BME280;56589;51.992;5.924;2023-03-26T03:08:19;99959.75;;;8.00;82.87
69402;BME280;56589;51.992;5.924;2023-03-26T03:10:55;99958.06;;;7.99;83.08
69402;BME280;56589;51.992;5.924;2023-03-26T03:13:22;99957.13;;;8.00;83.27
69402;BME280;56589;51.992;5.924;2023-03-26T03:15:48;99959.75;;;8.00;82.75
69402;BME280;56589;51.992;5.924;2023-03-26T03:18:14;99959.75;;;8.00;83.03
69402;BME280;56589;51.992;5.924;2023-03-26T03:20:42;99952.00;;;7.99;82.81
69402;BME280;56589;51.992;5.924;2023-03-26T03:23:08;99951.91;;;8.00;83.18
69402;BME280;56589;51.992;5.924;2023-03-26T03:25:34;99949.09;;;8.03;82.90
69402;BME280;56589;51.992;5.924;2023-03-26T03:27:59;99948.16;;;8.04;82.60
69402;BME280;56589;51.992;5.924;2023-03-26T03:30:25;99937.56;;;8.06;83.03
69402;BME280;56589;51.992;5.924;2023-03-26T03:32:51;99933.41;;;8.03;82.87
69402;BME280;56589;51.992;5.924;2023-03-26T03:35:17;99935.19;;;8.03;82.48
69402;BME280;56589;51.992;5.924;2023-03-26T03:37:45;99930.88;;;8.02;82.51
69402;BME280;56589;51.992;5.924;2023-03-26T03:40:12;99929.00;;;8.04;82.49
69402;BME280;56589;51.992;5.924;2023-03-26T03:42:38;99925.56;;;8.03;82.96
69402;BME280;56589;51.992;5.924;2023-03-26T03:45:08;99927.13;;;8.06;82.78
69402;BME280;56589;51.992;5.924;2023-03-26T03:47:35;99929.63;;;8.07;82.54
69402;BME280;56589;51.992;5.924;2023-03-26T03:50:04;99926.19;;;8.07;82.64
69402;BME280;56589;51.992;5.924;2023-03-26T03:52:32;99928.78;;;8.07;82.61
69402;BME280;56589;51.992;5.924;2023-03-26T03:55:00;99926.19;;;8.07;82.37
69402;BME280;56589;51.992;5.924;2023-03-26T03:57:26;99930.56;;;8.06;82.47
69402;BME280;56589;51.992;5.924;2023-03-26T03:59:52;99931.41;;;8.07;82.17
69402;BME280;56589;51.992;5.924;2023-03-26T04:02:18;99925.22;;;8.08;82.54
69402;BME280;56589;51.992;5.924;2023-03-26T04:04:44;99919.09;;;8.09;82.13
69402;BME280;56589;51.992;5.924;2023-03-26T04:07:10;99916.47;;;8.09;82.28
69402;BME280;56589;51.992;5.924;2023-03-26T04:09:37;99902.56;;;8.08;82.43
69402;BME280;56589;51.992;5.924;2023-03-26T04:12:06;99907.78;;;8.08;82.22
69402;BME280;56589;51.992;5.924;2023-03-26T04:14:32;99899.84;;;8.10;82.05
69402;BME280;56589;51.992;5.924;2023-03-26T04:16:57;99901.41;;;8.12;82.41
69402;BME280;56589;51.992;5.924;2023-03-26T04:19:23;99893.56;;;8.12;82.09
69402;BME280;56589;51.992;5.924;2023-03-26T04:21:49;99885.59;;;8.14;82.38
69402;BME280;56589;51.992;5.924;2023-03-26T04:24:15;99886.44;;;8.14;82.14
69402;BME280;56589;51.992;5.924;2023-03-26T04:26:41;99884.69;;;8.15;82.03
69402;BME280;56589;51.992;5.924;2023-03-26T04:29:11;99879.47;;;8.15;81.93
69402;BME280;56589;51.992;5.924;2023-03-26T04:31:42;99888.13;;;8.15;82.23
69402;BME280;56589;51.992;5.924;2023-03-26T04:34:17;99885.53;;;8.15;81.85
69402;BME280;56589;51.992;5.924;2023-03-26T04:36:46;99885.53;;;8.15;81.97
69402;BME280;56589;51.992;5.924;2023-03-26T04:39:12;99880.38;;;8.14;82.04
69402;BME280;56589;51.992;5.924;2023-03-26T04:41:38;99878.69;;;8.13;81.59
69402;BME280;56589;51.992;5.924;2023-03-26T04:44:09;99874.41;;;8.12;82.05
69402;BME280;56589;51.992;5.924;2023-03-26T04:46:35;99870.25;;;8.09;81.56
69402;BME280;56589;51.992;5.924;2023-03-26T04:49:01;99875.47;;;8.09;81.85
69402;BME280;56589;51.992;5.924;2023-03-26T04:51:32;99858.84;;;8.10;81.48
69402;BME280;56589;51.992;5.924;2023-03-26T04:54:01;99863.25;;;8.10;81.62
69402;BME280;56589;51.992;5.924;2023-03-26T04:56:34;99849.34;;;8.09;81.59
69402;BME280;56589;51.992;5.924;2023-03-26T04:59:05;99843.34;;;8.07;81.44
69402;BME280;56589;51.992;5.924;2023-03-26T05:01:37;99845.88;;;8.09;81.85
69402;BME280;56589;51.992;5.924;2023-03-26T05:04:03;99841.50;;;8.09;81.62
69402;BME280;56589;51.992;5.924;2023-03-26T05:06:30;99838.88;;;8.09;81.65
69402;BME280;56589;51.992;5.924;2023-03-26T05:08:55;99837.09;;;8.10;81.66
69402;BME280;56589;51.992;5.924;2023-03-26T05:11:21;99829.97;;;8.12;81.46
69402;BME280;56589;51.992;5.924;2023-03-26T05:13:47;99830.91;;;8.11;81.10
69402;BME280;56589;51.992;5.924;2023-03-26T05:16:13;99830.19;;;8.09;81.18
69402;BME280;56589;51.992;5.924;2023-03-26T05:18:44;99835.31;;;8.10;80.97
69402;BME280;56589;51.992;5.924;2023-03-26T05:21:10;99827.47;;;8.10;81.45
69402;BME280;56589;51.992;5.924;2023-03-26T05:23:36;99818.69;;;8.11;81.17
69402;BME280;56589;51.992;5.924;2023-03-26T05:26:02;99825.69;;;8.11;81.26
69402;BME280;56589;51.992;5.924;2023-03-26T05:28:30;99817.00;;;8.10;81.34
69402;BME280;56589;51.992;5.924;2023-03-26T05:30:56;99814.28;;;8.12;81.46
69402;BME280;56589;51.992;5.924;2023-03-26T05:33:22;99807.28;;;8.12;81.34
69402;BME280;56589;51.992;5.924;2023-03-26T05:35:58;99810.59;;;8.14;81.26
69402;BME280;56589;51.992;5.924;2023-03-26T05:38:24;99800.16;;;8.14;80.80
69402;BME280;56589;51.992;5.924;2023-03-26T05:40:50;99800.38;;;8.11;81.00
69402;BME280;56589;51.992;5.924;2023-03-26T05:43:15;99803.09;;;8.10;81.04
69402;BME280;56589;51.992;5.924;2023-03-26T05:45:41;99797.13;;;8.08;81.11
69402;BME280;56589;51.992;5.924;2023-03-26T05:48:07;99791.06;;;8.07;81.37
69402;BME280;56589;51.992;5.924;2023-03-26T05:50:35;99791.19;;;8.06;81.26
69402;BME280;56589;51.992;5.924;2023-03-26T05:53:04;99786.91;;;8.05;81.34
69402;BME280;56589;51.992;5.924;2023-03-26T05:55:29;99778.22;;;8.04;80.98
69402;BME280;56589;51.992;5.924;2023-03-26T05:57:55;99770.50;;;8.03;81.15
69402;BME280;56589;51.992;5.924;2023-03-26T06:00:21;99778.44;;;8.01;81.45
69402;BME280;56589;51.992;5.924;2023-03-26T06:02:47;99763.91;;;7.97;80.97
69402;BME280;56589;51.992;5.924;2023-03-26T06:05:13;99766.97;;;7.91;81.01
69402;BME280;56589;51.992;5.924;2023-03-26T06:07:38;99762.16;;;7.85;81.63
69402;BME280;56589;51.992;5.924;2023-03-26T06:10:08;99753.56;;;7.83;81.48
69402;BME280;56589;51.992;5.924;2023-03-26T06:12:34;99753.56;;;7.83;81.66
69402;BME280;56589;51.992;5.924;2023-03-26T06:15:00;99744.28;;;7.79;81.55
69402;BME280;56589;51.992;5.924;2023-03-26T06:17:26;99743.75;;;7.74;81.57
69402;BME280;56589;51.992;5.924;2023-03-26T06:19:52;99741.56;;;7.68;81.93
69402;BME280;56589;51.992;5.924;2023-03-26T06:22:18;99740.84;;;7.66;82.04
69402;BME280;56589;51.992;5.924;2023-03-26T06:24:44;99733.94;;;7.65;82.29
69402;BME280;56589;51.992;5.924;2023-03-26T06:27:18;99735.94;;;7.61;82.13
69402;BME280;56589;51.992;5.924;2023-03-26T06:29:44;99731.75;;;7.58;82.56
69402;BME280;56589;51.992;5.924;2023-03-26T06:32:12;99725.69;;;7.58;82.10
69402;BME280;56589;51.992;5.924;2023-03-26T06:34:38;99725.59;;;7.59;82.25
69402;BME280;56589;51.992;5.924;2023-03-26T06:37:04;99727.25;;;7.60;82.56
69402;BME280;56589;51.992;5.924;2023-03-26T06:39:30;99728.09;;;7.61;82.77
69402;BME280;56589;51.992;5.924;2023-03-26T06:41:56;99733.44;;;7.59;82.59
69402;BME280;56589;51.992;5.924;2023-03-26T06:44:24;99726.44;;;7.60;82.48
69402;BME280;56589;51.992;5.924;2023-03-26T06:46:50;99728.94;;;7.61;82.46
69402;BME280;56589;51.992;5.924;2023-03-26T06:49:16;99724.53;;;7.62;82.87
69402;BME280;56589;51.992;5.924;2023-03-26T06:51:42;99725.25;;;7.64;82.41
69402;BME280;56589;51.992;5.924;2023-03-26T06:54:07;99722.66;;;7.64;82.43
69402;BME280;56589;51.992;5.924;2023-03-26T06:56:34;99726.09;;;7.65;82.85
69402;BME280;56589;51.992;5.924;2023-03-26T06:59:00;99720.03;;;7.64;82.44
69402;BME280;56589;51.992;5.924;2023-03-26T07:01:28;99722.66;;;7.64;82.68
69402;BME280;56589;51.992;5.924;2023-03-26T07:03:54;99727.69;;;7.67;82.51
69402;BME280;56589;51.992;5.924;2023-03-26T07:06:20;99726.94;;;7.65;82.64
69402;BME280;56589;51.992;5.924;2023-03-26T07:08:45;99723.41;;;7.66;82.65
69402;BME280;56589;51.992;5.924;2023-03-26T07:11:11;99722.44;;;7.67;82.70
69402;BME280;56589;51.992;5.924;2023-03-26T07:13:37;99724.13;;;7.68;82.65
69402;BME280;56589;51.992;5.924;2023-03-26T07:16:04;99717.22;;;7.67;82.70
69402;BME280;56589;51.992;5.924;2023-03-26T07:18:33;99716.41;;;7.67;83.02
69402;BME280;56589;51.992;5.924;2023-03-26T07:20:59;99715.44;;;7.68;82.76
69402;BME280;56589;51.992;5.924;2023-03-26T07:23:26;99719.72;;;7.69;82.76
69402;BME280;56589;51.992;5.924;2023-03-26T07:25:53;99715.75;;;7.63;82.78
69402;BME280;56589;51.992;5.924;2023-03-26T07:28:30;99717.53;;;7.63;83.13
69402;BME280;56589;51.992;5.924;2023-03-26T07:31:12;99708.88;;;7.62;83.01
69402;BME280;56589;51.992;5.924;2023-03-26T07:33:57;99713.25;;;7.61;83.37
69402;BME280;56589;51.992;5.924;2023-03-26T07:36:33;99709.06;;;7.59;83.36
69402;BME280;56589;51.992;5.924;2023-03-26T07:39:12;99708.22;;;7.58;83.45
69402;BME280;56589;51.992;5.924;2023-03-26T07:41:59;99709.06;;;7.59;83.29
69402;BME280;56589;51.992;5.924;2023-03-26T07:44:42;99704.59;;;7.61;83.56
69402;BME280;56589;51.992;5.924;2023-03-26T07:47:22;99706.97;;;7.64;83.29
69402;BME280;56589;51.992;5.924;2023-03-26T07:49:55;99698.72;;;7.70;83.22
69402;BME280;56589;51.992;5.924;2023-03-26T07:52:22;99701.13;;;7.73;83.19
69402;BME280;56589;51.992;5.924;2023-03-26T07:54:49;99694.84;;;7.76;82.87
69402;BME280;56589;51.992;5.924;2023-03-26T07:57:23;99685.22;;;7.76;82.85
69402;BME280;56589;51.992;5.924;2023-03-26T08:00:06;99689.72;;;7.74;83.08
69402;BME280;56589;51.992;5.924;2023-03-26T08:02:54;99688.91;;;7.74;83.09
69402;BME280;56589;51.992;5.924;2023-03-26T08:05:55;99685.44;;;7.73;83.05
69402;BME280;56589;51.992;5.924;2023-03-26T08:08:36;99685.75;;;7.69;83.19
69402;BME280;56589;51.992;5.924;2023-03-26T08:11:18;99679.00;;;7.66;83.54
69402;BME280;56589;51.992;5.924;2023-03-26T08:13:58;99683.16;;;7.69;83.44
69402;BME280;56589;51.992;5.924;2023-03-26T08:16:36;99683.03;;;7.70;83.95
69402;BME280;56589;51.992;5.924;2023-03-26T08:19:19;99688.38;;;7.69;83.89
69402;BME280;56589;51.992;5.924;2023-03-26T08:22:03;99684.69;;;7.71;83.74
69402;BME280;56589;51.992;5.924;2023-03-26T08:24:39;99687.22;;;7.73;84.21
69402;BME280;56589;51.992;5.924;2023-03-26T08:27:15;99683.78;;;7.72;84.01
69402;BME280;56589;51.992;5.924;2023-03-26T08:29:51;99688.91;;;7.74;84.06
69402;BME280;56589;51.992;5.924;2023-03-26T08:32:25;99690.38;;;7.78;84.49
69402;BME280;56589;51.992;5.924;2023-03-26T08:34:51;99688.34;;;7.81;84.29
69402;BME280;56589;51.992;5.924;2023-03-26T08:37:19;99689.19;;;7.82;83.82
69402;BME280;56589;51.992;5.924;2023-03-26T08:39:45;99680.63;;;7.80;83.94
69402;BME280;56589;51.992;5.924;2023-03-26T08:46:08;99681.97;;;7.85;83.49
69402;BME280;56589;51.992;5.924;2023-03-26T08:52:54;99688.34;;;7.81;83.78
69402;BME280;56589;51.992;5.924;2023-03-26T08:55:43;99689.31;;;7.80;83.75
69402;BME280;56589;51.992;5.924;2023-03-26T08:58:42;99685.75;;;7.81;83.88
69402;BME280;56589;51.992;5.924;2023-03-26T09:05:20;99682.09;;;7.71;83.58
69402;BME280;56589;51.992;5.924;2023-03-26T09:11:41;99688.50;;;7.54;83.80
69402;BME280;56589;51.992;5.924;2023-03-26T09:14:51;99680.97;;;7.50;84.00
69402;BME280;56589;51.992;5.924;2023-03-26T09:21:25;99688.41;;;7.43;84.86
69402;BME280;56589;51.992;5.924;2023-03-26T09:24:34;99681.09;;;7.36;84.59
69402;BME280;56589;51.992;5.924;2023-03-26T09:27:29;99680.75;;;7.27;84.52
69402;BME280;56589;51.992;5.924;2023-03-26T09:30:20;99685.13;;;7.27;84.46
69402;BME280;56589;51.992;5.924;2023-03-26T09:33:21;99680.00;;;7.25;84.60
69402;BME280;56589;51.992;5.924;2023-03-26T09:36:18;99683.75;;;7.21;85.04
69402;BME280;56589;51.992;5.924;2023-03-26T09:38:52;99690.34;;;7.14;84.97
69402;BME280;56589;51.992;5.924;2023-03-26T09:41:37;99685.00;;;7.03;84.79
69402;BME280;56589;51.992;5.924;2023-03-26T09:47:36;99683.97;;;6.93;85.63
69402;BME280;56589;51.992;5.924;2023-03-26T09:50:26;99683.63;;;6.97;85.55
69402;BME280;56589;51.992;5.924;2023-03-26T09:53:19;99681.44;;;7.04;85.73
69402;BME280;56589;51.992;5.924;2023-03-26T09:56:14;99688.38;;;7.05;85.58
69402;BME280;56589;51.992;5.924;2023-03-26T09:59:24;99688.78;;;7.12;86.07
69402;BME280;56589;51.992;5.924;2023-03-26T10:02:15;99678.75;;;7.18;86.59
69402;BME280;56589;51.992;5.924;2023-03-26T10:11:22;99691.81;;;7.31;86.77
69402;BME280;56589;51.992;5.924;2023-03-26T10:14:05;99686.31;;;7.36;86.68
69402;BME280;56589;51.992;5.924;2023-03-26T10:16:44;99685.91;;;7.42;86.40
69402;BME280;56589;51.992;5.924;2023-03-26T10:19:46;99689.13;;;7.45;86.45
69402;BME280;56589;51.992;5.924;2023-03-26T10:22:31;99688.19;;;7.46;86.13
69402;BME280;56589;51.992;5.924;2023-03-26T10:25:27;99685.47;;;7.48;86.50
69402;BME280;56589;51.992;5.924;2023-03-26T10:28:13;99681.94;;;7.49;86.50
69402;BME280;56589;51.992;5.924;2023-03-26T10:31:05;99686.31;;;7.48;86.54
69402;BME280;56589;51.992;5.924;2023-03-26T10:33:55;99688.59;;;7.53;86.88
69402;BME280;56589;51.992;5.924;2023-03-26T10:36:33;99686.41;;;7.59;87.14
69402;BME280;56589;51.992;5.924;2023-03-26T10:39:22;99692.13;;;7.65;86.66
69402;BME280;56589;51.992;5.924;2023-03-26T10:42:09;99691.50;;;7.74;86.91
69402;BME280;56589;51.992;5.924;2023-03-26T10:44:59;99692.63;;;7.82;86.83
69402;BME280;56589;51.992;5.924;2023-03-26T10:47:49;99690.00;;;7.82;86.90
69402;BME280;56589;51.992;5.924;2023-03-26T10:50:41;99692.97;;;7.78;86.51
69402;BME280;56589;51.992;5.924;2023-03-26T10:53:27;99695.78;;;7.75;86.25
69402;BME280;56589;51.992;5.924;2023-03-26T10:56:06;99698.00;;;7.68;85.83
69402;BME280;56589;51.992;5.924;2023-03-26T10:58:41;99702.91;;;7.60;85.61
69402;BME280;56589;51.992;5.924;2023-03-26T11:01:13;99707.63;;;7.55;85.95
69402;BME280;56589;51.992;5.924;2023-03-26T11:03:54;99707.28;;;7.47;86.26
69402;BME280;56589;51.992;5.924;2023-03-26T11:06:30;99702.19;;;7.45;86.31
69402;BME280;56589;51.992;5.924;2023-03-26T11:09:16;99709.19;;;7.45;86.80
69402;BME280;56589;51.992;5.924;2023-03-26T11:11:59;99711.19;;;7.41;86.54
69402;BME280;56589;51.992;5.924;2023-03-26T11:14:35;99707.00;;;7.39;86.46
69402;BME280;56589;51.992;5.924;2023-03-26T11:17:19;99709.72;;;7.37;86.87
69402;BME280;56589;51.992;5.924;2023-03-26T11:20:02;99702.00;;;7.36;86.87
69402;BME280;56589;51.992;5.924;2023-03-26T11:22:44;99711.75;;;7.32;86.77
69402;BME280;56589;51.992;5.924;2023-03-26T11:25:48;99712.81;;;7.29;87.03
69402;BME280;56589;51.992;5.924;2023-03-26T11:31:25;99717.28;;;7.27;87.60
69402;BME280;56589;51.992;5.924;2023-03-26T11:34:09;99720.84;;;7.26;87.30
69402;BME280;56589;51.992;5.924;2023-03-26T11:36:45;99720.13;;;7.24;87.71
69402;BME280;56589;51.992;5.924;2023-03-26T11:39:19;99720.97;;;7.25;87.64
69402;BME280;56589;51.992;5.924;2023-03-26T11:42:04;99727.66;;;7.29;87.52
69402;BME280;56589;51.992;5.924;2023-03-26T11:44:37;99724.19;;;7.28;87.44
69402;BME280;56589;51.992;5.924;2023-03-26T11:47:09;99727.72;;;7.27;87.33
69402;BME280;56589;51.992;5.924;2023-03-26T11:49:40;99733.28;;;7.23;87.48
69402;BME280;56589;51.992;5.924;2023-03-26T11:52:10;99730.88;;;7.20;87.34
69402;BME280;56589;51.992;5.924;2023-03-26T11:54:36;99734.53;;;7.17;87.13
69402;BME280;56589;51.992;5.924;2023-03-26T11:57:07;99732.09;;;7.14;87.36
69402;BME280;56589;51.992;5.924;2023-03-26T11:59:43;99730.31;;;7.15;87.47
69402;BME280;56589;51.992;5.924;2023-03-26T12:02:18;99732.09;;;7.14;87.44
69402;BME280;56589;51.992;5.924;2023-03-26T12:04:51;99741.00;;;7.12;87.26
69402;BME280;56589;51.992;5.924;2023-03-26T12:07:29;99736.91;;;7.07;87.53
69402;BME280;56589;51.992;5.924;2023-03-26T12:09:58;99741.19;;;7.08;87.67
69402;BME280;56589;51.992;5.924;2023-03-26T12:12:30;99741.41;;;7.05;87.01
69402;BME280;56589;51.992;5.924;2023-03-26T12:14:57;99739.50;;;6.95;86.73
69402;BME280;56589;51.992;5.924;2023-03-26T12:17:30;99736.75;;;6.84;86.71
69402;BME280;56589;51.992;5.924;2023-03-26T12:19:59;99740.41;;;6.81;87.46
69402;BME280;56589;51.992;5.924;2023-03-26T12:22:28;99735.38;;;6.78;87.15
69402;BME280;56589;51.992;5.924;2023-03-26T12:25:00;99746.75;;;6.77;86.79
69402;BME280;56589;51.992;5.924;2023-03-26T12:27:42;99746.84;;;6.75;86.98
69402;BME280;56589;51.992;5.924;2023-03-26T12:30:18;99744.53;;;6.71;86.63
69402;BME280;56589;51.992;5.924;2023-03-26T12:32:47;99752.56;;;6.68;86.72
69402;BME280;56589;51.992;5.924;2023-03-26T12:35:16;99746.19;;;6.72;87.17
69402;BME280;56589;51.992;5.924;2023-03-26T12:37:45;99758.13;;;6.76;87.41
69402;BME280;56589;51.992;5.924;2023-03-26T12:40:27;99759.69;;;6.78;87.06
69402;BME280;56589;51.992;5.924;2023-03-26T12:42:59;99757.72;;;6.82;87.30
69402;BME280;56589;51.992;5.924;2023-03-26T12:45:30;99753.88;;;6.88;87.37
69402;BME280;56589;51.992;5.924;2023-03-26T12:48:02;99769.03;;;6.95;87.36
69402;BME280;56589;51.992;5.924;2023-03-26T12:50:41;99763.63;;;6.98;86.69
69402;BME280;56589;51.992;5.924;2023-03-26T12:53:32;99768.09;;;6.96;86.82
69402;BME280;56589;51.992;5.924;2023-03-26T12:56:18;99764.03;;;6.92;86.40
69402;BME280;56589;51.992;5.924;2023-03-26T12:59:11;99770.66;;;6.84;86.13
69402;BME280;56589;51.992;5.924;2023-03-26T13:02:00;99771.25;;;6.74;85.99
69402;BME280;56589;51.992;5.924;2023-03-26T13:04:49;99768.00;;;6.71;85.90
69402;BME280;56589;51.992;5.924;2023-03-26T13:07:44;99768.84;;;6.71;86.68
69402;BME280;56589;51.992;5.924;2023-03-26T13:10:40;99768.22;;;6.68;85.97
69402;BME280;56589;51.992;5.924;2023-03-26T13:13:31;99768.22;;;6.68;86.51
69402;BME280;56589;51.992;5.924;2023-03-26T13:16:19;99770.72;;;6.69;86.06
69402;BME280;56589;51.992;5.924;2023-03-26T13:18:53;99779.88;;;6.62;85.48
69402;BME280;56589;51.992;5.924;2023-03-26T13:21:30;99783.81;;;6.55;85.48
69402;BME280;56589;51.992;5.924;2023-03-26T13:24:16;99778.50;;;6.57;86.09
69402;BME280;56589;51.992;5.924;2023-03-26T13:27:02;99786.22;;;6.58;86.52
69402;BME280;56589;51.992;5.924;2023-03-26T13:29:47;99786.94;;;6.60;86.05
69402;BME280;56589;51.992;5.924;2023-03-26T13:32:28;99788.63;;;6.61;86.19
69402;BME280;56589;51.992;5.924;2023-03-26T13:35:20;99789.38;;;6.63;85.97
69402;BME280;56589;51.992;5.924;2023-03-26T13:37:55;99789.16;;;6.66;85.96
69402;BME280;56589;51.992;5.924;2023-03-26T13:40:37;99786.38;;;6.69;86.12
69402;BME280;56589;51.992;5.924;2023-03-26T13:43:31;99791.47;;;6.71;85.89
69402;BME280;56589;51.992;5.924;2023-03-26T13:46:11;99792.22;;;6.73;86.07
69402;BME280;56589;51.992;5.924;2023-03-26T13:48:54;99788.38;;;6.78;86.12
69402;BME280;56589;51.992;5.924;2023-03-26T13:51:27;99797.41;;;6.87;85.88
69402;BME280;56589;51.992;5.924;2023-03-26T13:54:08;99801.28;;;6.94;85.56
69402;BME280;56589;51.992;5.924;2023-03-26T13:56:43;99796.38;;;7.02;86.05
69402;BME280;56589;51.992;5.924;2023-03-26T13:59:16;99801.75;;;7.14;85.65
69402;BME280;56589;51.992;5.924;2023-03-26T14:01:49;99808.66;;;7.27;85.66
69402;BME280;56589;51.992;5.924;2023-03-26T14:04:25;99805.28;;;7.40;85.30
69402;BME280;56589;51.992;5.924;2023-03-26T14:06:58;99809.06;;;7.48;84.97
69402;BME280;56589;51.992;5.924;2023-03-26T14:09:36;99815.31;;;7.58;84.98
69402;BME280;56589;51.992;5.924;2023-03-26T14:12:36;99818.28;;;7.67;84.25
69402;BME280;56589;51.992;5.924;2023-03-26T14:15:14;99825.91;;;7.70;82.80
69402;BME280;56589;51.992;5.924;2023-03-26T14:17:49;99828.63;;;7.68;82.99